createdAt,value
2017-11-27T00:00:39.614Z,101937.58
2017-11-27T00:02:42.989Z,101940.78
2017-11-27T00:04:46.327Z,101926.44
2017-11-27T00:06:49.628Z,101921.45
2017-11-27T00:08:52.994Z,101918.34
2017-11-27T00:10:56.322Z,101913.44
2017-11-27T00:12:59.776Z,101918.41
2017-11-27T00:15:03.074Z,101921.53
2017-11-27T00:17:06.394Z,101919.26
2017-11-27T00:19:09.789Z,101926.01
2017-11-27T00:21:13.166Z,101921.45
2017-11-27T00:23:16.629Z,101934.11
2017-11-27T00:25:19.927Z,101928.28
2017-11-27T00:27:23.253Z,101919.76
2017-11-27T00:29:26.576Z,101913.94
2017-11-27T00:31:29.949Z,101913.01
2017-11-27T00:33:33.270Z,101913.44
2017-11-27T00:35:36.676Z,101910.81
2017-11-27T00:37:39.986Z,101918.83
2017-11-27T00:39:43.358Z,101908.03
2017-11-27T00:41:46.732Z,101900.36
2017-11-27T00:43:50.043Z,101901.70
2017-11-27T00:45:53.456Z,101903.06
2017-11-27T00:47:56.857Z,101906.69
2017-11-27T00:50:00.207Z,101918.34
2017-11-27T00:52:03.604Z,101914.36
2017-11-27T00:54:06.889Z,101904.41
2017-11-27T00:56:22.272Z,101899.94
2017-11-27T00:58:25.660Z,101903.13
2017-11-27T01:00:28.948Z,101906.27
2017-11-27T01:02:32.510Z,101907.69
2017-11-27T01:04:35.911Z,101906.27
2017-11-27T01:06:39.209Z,101901.78
2017-11-27T01:08:42.594Z,101900.36
2017-11-27T01:10:45.936Z,101903.98
2017-11-27T01:12:49.247Z,101910.81
2017-11-27T01:14:52.622Z,101908.03
2017-11-27T01:16:55.949Z,101914.78
2017-11-27T01:18:59.361Z,101908.95
2017-11-27T01:21:02.655Z,101899.94
2017-11-27T01:23:05.981Z,101906.27
2017-11-27T01:25:09.340Z,101912.08
2017-11-27T01:27:12.626Z,101905.33
2017-11-27T01:29:15.957Z,101908.39
2017-11-27T01:31:19.413Z,101906.19
2017-11-27T01:33:22.710Z,101903.06
2017-11-27T01:35:26.022Z,101899.02
2017-11-27T01:37:29.461Z,101903.13
2017-11-27T01:39:32.825Z,101899.51
2017-11-27T01:41:36.150Z,101899.02
2017-11-27T01:43:39.458Z,101897.66
2017-11-27T01:45:42.804Z,101897.23
2017-11-27T01:47:46.181Z,101892.19
2017-11-27T01:49:49.640Z,101899.94
2017-11-27T01:51:52.974Z,101897.23
2017-11-27T01:53:56.281Z,101904.41
2017-11-27T01:55:59.581Z,101896.31
2017-11-27T01:58:02.938Z,101893.19
2017-11-27T02:00:06.301Z,101887.78
2017-11-27T02:02:09.604Z,101893.61
2017-11-27T02:04:19.474Z,101887.36
2017-11-27T02:06:22.819Z,101892.69
2017-11-27T02:08:26.200Z,101881.03
2017-11-27T02:10:29.497Z,101884.16
2017-11-27T02:12:32.827Z,101883.73
2017-11-27T02:14:36.171Z,101872.52
2017-11-27T02:16:39.542Z,101869.31
2017-11-27T02:18:42.891Z,101869.31
2017-11-27T02:20:46.309Z,101861.64
2017-11-27T02:22:49.944Z,101866.61
2017-11-27T02:24:53.235Z,101872.44
2017-11-27T02:26:56.626Z,101863.48
2017-11-27T02:29:00.020Z,101867.04
2017-11-27T02:31:03.382Z,101862.14
2017-11-27T02:33:06.780Z,101865.69
2017-11-27T02:35:10.146Z,101857.59
2017-11-27T02:37:13.478Z,101863.91
2017-11-27T02:39:16.833Z,101857.94
2017-11-27T02:41:20.144Z,101849.92
2017-11-27T02:43:23.585Z,101860.29
2017-11-27T02:45:26.850Z,101855.73
2017-11-27T02:47:30.160Z,101842.23
2017-11-27T02:49:33.546Z,101840.89
2017-11-27T02:51:36.929Z,101835.56
2017-11-27T02:53:40.218Z,101829.66
2017-11-27T02:55:43.547Z,101829.66
2017-11-27T02:57:46.988Z,101827.39
2017-11-27T02:59:50.357Z,101832.79
2017-11-27T03:01:53.773Z,101831.87
2017-11-27T03:03:57.136Z,101824.69
2017-11-27T03:06:00.494Z,101828.74
2017-11-27T03:08:03.883Z,101825.12
2017-11-27T03:10:07.184Z,101822.42
2017-11-27T03:12:10.535Z,101818.80
2017-11-27T03:14:13.881Z,101817.02
2017-11-27T03:16:17.308Z,101823.34
2017-11-27T03:18:20.601Z,101813.05
2017-11-27T03:20:24.030Z,101813.81
2017-11-27T03:22:27.479Z,101815.24
2017-11-27T03:24:30.782Z,101817.02
2017-11-27T03:26:34.118Z,101819.72
2017-11-27T03:28:37.404Z,101816.17
2017-11-27T03:30:40.850Z,101810.77
2017-11-27T03:32:47.974Z,101799.05
2017-11-27T03:34:51.310Z,101795.50
2017-11-27T03:36:54.680Z,101794.14
2017-11-27T03:38:58.035Z,101804.95
2017-11-27T03:41:01.335Z,101791.88
2017-11-27T03:43:04.893Z,101784.70
2017-11-27T03:45:08.274Z,101789.59
2017-11-27T03:47:11.564Z,101791.88
2017-11-27T03:49:15.008Z,101789.59
2017-11-27T03:51:18.326Z,101789.59
2017-11-27T03:53:21.636Z,101793.72
2017-11-27T03:55:24.943Z,101788.25
2017-11-27T03:57:28.256Z,101788.25
2017-11-27T03:59:31.662Z,101777.95
2017-11-27T04:01:35.107Z,101781.50
2017-11-27T04:03:38.452Z,101774.67
2017-11-27T04:05:41.786Z,101768.50
2017-11-27T04:07:45.219Z,101760.41
2017-11-27T04:09:48.562Z,101753.66
2017-11-27T04:11:51.868Z,101752.80
2017-11-27T04:13:55.164Z,101750.10
2017-11-27T04:15:58.487Z,101751.03
2017-11-27T04:18:01.825Z,101739.30
2017-11-27T04:20:05.174Z,101745.20
2017-11-27T04:22:08.577Z,101741.58
2017-11-27T04:24:11.861Z,101732.48
2017-11-27T04:26:15.162Z,101735.76
2017-11-27T04:28:18.479Z,101728.93
2017-11-27T04:30:21.871Z,101725.38
2017-11-27T04:32:25.159Z,101726.30
2017-11-27T04:34:28.597Z,101727.66
2017-11-27T04:36:31.945Z,101723.11
2017-11-27T04:38:35.277Z,101722.26
2017-11-27T04:40:38.727Z,101716.02
2017-11-27T04:42:42.016Z,101705.13
2017-11-27T04:44:45.341Z,101710.53
2017-11-27T04:46:48.799Z,101714.66
2017-11-27T04:48:52.248Z,101711.45
2017-11-27T04:50:55.546Z,101709.69
2017-11-27T04:52:58.872Z,101697.96
2017-11-27T04:55:02.264Z,101693.06
2017-11-27T04:57:05.610Z,101692.64
2017-11-27T04:59:09.050Z,101693.48
2017-11-27T05:01:12.442Z,101692.64
2017-11-27T05:03:15.724Z,101693.56
2017-11-27T05:05:19.122Z,101683.19
2017-11-27T05:07:22.394Z,101672.89
2017-11-27T05:09:25.802Z,101666.65
2017-11-27T05:11:29.132Z,101662.59
2017-11-27T05:13:32.434Z,101656.77
2017-11-27T05:15:35.739Z,101654.92
2017-11-27T05:17:39.063Z,101664.88
2017-11-27T05:19:42.399Z,101665.80
2017-11-27T05:21:45.694Z,101654.08
2017-11-27T05:23:49.134Z,101656.27
2017-11-27T05:25:52.474Z,101656.77
2017-11-27T05:27:55.821Z,101650.03
2017-11-27T05:29:59.177Z,101653.58
2017-11-27T05:32:02.478Z,101644.20
2017-11-27T05:34:05.781Z,101648.67
2017-11-27T05:36:09.197Z,101647.75
2017-11-27T05:38:12.490Z,101634.25
2017-11-27T05:40:15.861Z,101639.66
2017-11-27T05:42:19.214Z,101639.66
2017-11-27T05:44:22.848Z,101636.45
2017-11-27T05:46:26.238Z,101633.75
2017-11-27T05:48:29.738Z,101637.37
2017-11-27T05:50:33.030Z,101620.67
2017-11-27T05:52:36.349Z,101622.53
2017-11-27T05:54:39.802Z,101609.87
2017-11-27T05:56:43.099Z,101613.00
2017-11-27T05:58:46.465Z,101599.08
2017-11-27T06:00:49.773Z,101601.28
2017-11-27T06:02:53.076Z,101596.03
2017-11-27T06:04:56.379Z,101592.84
2017-11-27T06:06:59.785Z,101590.56
2017-11-27T06:09:03.245Z,101588.86
2017-11-27T06:11:06.526Z,101579.84
2017-11-27T06:13:09.905Z,101583.89
2017-11-27T06:15:13.316Z,101574.87
2017-11-27T06:17:16.606Z,101573.09
2017-11-27T06:19:19.935Z,101568.12
2017-11-27T06:21:23.354Z,101556.89
2017-11-27T06:23:26.645Z,101556.47
2017-11-27T06:25:30.070Z,101554.20
2017-11-27T06:27:33.382Z,101553.27
2017-11-27T06:29:36.748Z,101551.50
2017-11-27T06:31:40.078Z,101551.42
2017-11-27T06:33:43.488Z,101552.77
2017-11-27T06:35:46.826Z,101543.74
2017-11-27T06:37:50.266Z,101546.02
2017-11-27T06:39:53.706Z,101537.50
2017-11-27T06:41:57.002Z,101530.33
2017-11-27T06:44:00.493Z,101534.80
2017-11-27T06:46:03.813Z,101524.42
2017-11-27T06:48:07.175Z,101515.05
2017-11-27T06:50:10.513Z,101516.83
2017-11-27T06:52:13.869Z,101519.03
2017-11-27T06:54:18.024Z,101507.30
2017-11-27T06:56:21.414Z,101509.08
2017-11-27T06:58:24.746Z,101496.92
2017-11-27T07:00:28.041Z,101503.67
2017-11-27T07:02:31.529Z,101502.75
2017-11-27T07:04:34.821Z,101503.17
2017-11-27T07:06:38.157Z,101495.08
2017-11-27T07:08:41.500Z,101491.45
2017-11-27T07:10:44.897Z,101488.67
2017-11-27T07:12:48.229Z,101475.17
2017-11-27T07:14:51.560Z,101469.77
2017-11-27T07:16:54.937Z,101464.37
2017-11-27T07:18:58.230Z,101468.00
2017-11-27T07:21:01.885Z,101467.00
2017-11-27T07:23:05.262Z,101463.80
2017-11-27T07:25:08.579Z,101463.80
2017-11-27T07:27:12.129Z,101468.58
2017-11-27T07:29:15.471Z,101459.89
2017-11-27T07:31:18.910Z,101459.73
2017-11-27T07:33:22.304Z,101458.27
2017-11-27T07:35:26.526Z,101447.73
2017-11-27T07:37:35.622Z,101452.52
2017-11-27T07:39:44.645Z,101441.98
2017-11-27T07:41:47.933Z,101435.15
2017-11-27T07:43:51.272Z,101433.69
2017-11-27T07:45:55.722Z,101423.73
2017-11-27T07:47:59.090Z,101425.59
2017-11-27T07:50:03.297Z,101425.08
2017-11-27T07:52:06.665Z,101408.45
2017-11-27T07:54:09.981Z,101412.85
2017-11-27T07:56:13.282Z,101409.65
2017-11-27T07:58:16.909Z,101400.63
2017-11-27T08:00:20.208Z,101404.67
2017-11-27T08:02:23.501Z,101391.09
2017-11-27T08:04:26.886Z,101384.73
2017-11-27T08:06:30.266Z,101392.16
2017-11-27T08:08:33.639Z,101383.13
2017-11-27T08:10:36.962Z,101374.95
2017-11-27T08:12:40.261Z,101368.09
2017-11-27T08:14:43.595Z,101365.39
2017-11-27T08:16:46.958Z,101372.91
2017-11-27T08:18:50.274Z,101366.91
2017-11-27T08:20:53.626Z,101365.56
2017-11-27T08:22:57.013Z,101364.95
2017-11-27T08:25:00.420Z,101351.87
2017-11-27T08:27:03.722Z,101350.35
2017-11-27T08:29:07.073Z,101351.50
2017-11-27T08:31:11.310Z,101341.13
2017-11-27T08:33:14.645Z,101347.29
2017-11-27T08:35:17.982Z,101343.24
2017-11-27T08:37:22.098Z,101340.97
2017-11-27T08:39:25.410Z,101340.34
2017-11-27T08:41:28.984Z,101341.11
2017-11-27T08:43:32.309Z,101332.08
2017-11-27T08:45:35.872Z,101329.59
2017-11-27T08:47:39.188Z,101330.87
2017-11-27T08:49:42.485Z,101329.86
2017-11-27T08:51:45.785Z,101318.94
2017-11-27T08:53:49.179Z,101316.16
2017-11-27T08:55:52.617Z,101314.13
2017-11-27T08:57:55.921Z,101304.26
2017-11-27T08:59:59.296Z,101303.12
2017-11-27T09:02:02.625Z,101297.22
2017-11-27T09:04:05.953Z,101299.33
2017-11-27T09:06:09.337Z,101297.56
2017-11-27T09:08:12.740Z,101286.25
2017-11-27T09:10:16.142Z,101280.84
2017-11-27T09:12:19.474Z,101269.93
2017-11-27T09:14:22.842Z,101268.58
2017-11-27T09:16:26.222Z,101271.20
2017-11-27T09:18:29.549Z,101263.85
2017-11-27T09:20:32.842Z,101261.57
2017-11-27T09:22:36.146Z,101251.08
2017-11-27T09:24:39.493Z,101246.94
2017-11-27T09:26:42.783Z,101244.16
2017-11-27T09:28:46.461Z,101230.56
2017-11-27T09:30:49.907Z,101226.51
2017-11-27T09:32:53.282Z,101220.98
2017-11-27T09:34:56.753Z,101220.48
2017-11-27T09:37:00.116Z,101219.47
2017-11-27T09:39:04.293Z,101226.45
2017-11-27T09:41:07.643Z,101216.48
2017-11-27T09:43:11.215Z,101211.92
2017-11-27T09:45:14.523Z,101206.73
2017-11-27T09:47:17.901Z,101202.30
2017-11-27T09:49:21.246Z,101195.93
2017-11-27T09:51:24.553Z,101200.32
2017-11-27T09:53:27.904Z,101207.41
2017-11-27T09:55:31.293Z,101203.27
2017-11-27T09:57:34.614Z,101204.51
2017-11-27T09:59:37.908Z,101207.97
2017-11-27T10:01:41.229Z,101195.81
2017-11-27T10:03:44.513Z,101197.58
2017-11-27T10:05:47.842Z,101202.39
2017-11-27T10:07:51.206Z,101191.98
2017-11-27T10:09:54.647Z,101189.19
2017-11-27T10:11:58.011Z,101183.70
2017-11-27T10:14:01.320Z,101176.95
2017-11-27T10:16:05.102Z,101182.77
2017-11-27T10:18:08.805Z,101158.79
2017-11-27T10:20:13.353Z,101153.27
2017-11-27T10:22:17.653Z,101147.78
2017-11-27T10:24:21.024Z,101143.22
2017-11-27T10:26:24.414Z,101137.73
2017-11-27T10:28:28.701Z,101133.59
2017-11-27T10:30:32.002Z,101132.23
2017-11-27T10:32:35.343Z,101123.08
2017-11-27T10:34:38.666Z,101133.47
2017-11-27T10:36:41.985Z,101118.94
2017-11-27T10:38:45.318Z,101121.13
2017-11-27T10:40:48.636Z,101116.16
2017-11-27T10:42:52.041Z,101121.05
2017-11-27T10:44:55.417Z,101115.22
2017-11-27T10:46:58.726Z,101106.61
2017-11-27T10:49:02.065Z,101095.68
2017-11-27T10:51:05.377Z,101081.66
2017-11-27T10:53:08.694Z,101067.55
2017-11-27T10:55:12.104Z,101062.06
2017-11-27T10:57:15.451Z,101060.17
2017-11-27T10:59:18.796Z,101053.33
2017-11-27T11:01:22.119Z,101039.81
2017-11-27T11:03:25.476Z,101020.84
2017-11-27T11:05:28.859Z,101006.39
2017-11-27T11:07:32.155Z,101008.67
2017-11-27T11:09:35.595Z,100989.77
2017-11-27T11:11:38.887Z,100978.44
2017-11-27T11:13:42.223Z,100968.05
2017-11-27T11:15:45.609Z,100975.11
2017-11-27T11:17:48.952Z,100957.97
2017-11-27T11:19:52.258Z,100952.98
2017-11-27T11:21:55.691Z,100938.95
2017-11-27T11:23:59.108Z,100943.43
2017-11-27T11:26:02.546Z,100932.11
2017-11-27T11:28:05.963Z,100936.25
2017-11-27T11:30:09.239Z,100929.50
2017-11-27T11:32:12.688Z,100926.38
2017-11-27T11:34:16.105Z,100919.71
2017-11-27T11:36:19.415Z,100929.59
2017-11-27T11:38:22.798Z,100917.34
2017-11-27T11:40:26.177Z,100921.06
2017-11-27T11:42:29.522Z,100910.25
2017-11-27T11:44:32.868Z,100907.67
2017-11-27T11:46:36.256Z,100915.36
2017-11-27T11:48:39.622Z,100915.86
2017-11-27T11:50:42.932Z,100915.45
2017-11-27T11:52:46.302Z,100919.08
2017-11-27T11:54:49.700Z,100912.89
2017-11-27T11:56:53.004Z,100906.55
2017-11-27T11:58:56.363Z,100905.83
2017-11-27T12:00:59.681Z,100898.66
2017-11-27T12:03:03.046Z,100897.73
2017-11-27T12:05:06.374Z,100895.95
2017-11-27T12:07:09.796Z,100894.19
2017-11-27T12:09:13.129Z,100890.13
2017-11-27T12:11:16.482Z,100882.44
2017-11-27T12:13:19.871Z,100872.05
2017-11-27T12:15:23.161Z,100873.83
2017-11-27T12:17:26.637Z,100859.39
2017-11-27T12:19:29.936Z,100865.52
2017-11-27T12:21:33.281Z,100855.13
2017-11-27T12:23:36.663Z,100846.17
2017-11-27T12:25:40.013Z,100847.88
2017-11-27T12:27:43.302Z,100842.06
2017-11-27T12:29:46.655Z,100853.34
2017-11-27T12:31:49.987Z,100843.32
2017-11-27T12:33:54.706Z,100844.25
2017-11-27T12:35:58.058Z,100846.45
2017-11-27T12:38:01.419Z,100836.56
2017-11-27T12:40:04.735Z,100830.74
2017-11-27T12:42:08.173Z,100830.65
2017-11-27T12:44:11.454Z,100837.28
2017-11-27T12:46:14.766Z,100833.14
2017-11-27T12:48:18.118Z,100824.94
2017-11-27T12:50:21.639Z,100826.30
2017-11-27T12:52:24.934Z,100823.08
2017-11-27T12:54:28.271Z,100816.75
2017-11-27T12:56:31.679Z,100816.63
2017-11-27T12:58:35.202Z,100818.81
2017-11-27T13:00:38.553Z,100808.42
2017-11-27T13:02:41.825Z,100812.39
2017-11-27T13:04:45.147Z,100795.15
2017-11-27T13:06:48.498Z,100794.31
2017-11-27T13:08:51.853Z,100800.97
2017-11-27T13:10:55.156Z,100794.64
2017-11-27T13:12:58.573Z,100806.17
2017-11-27T13:15:01.874Z,100790.38
2017-11-27T13:17:05.322Z,100785.38
2017-11-27T13:19:08.680Z,100784.88
2017-11-27T13:21:12.035Z,100781.23
2017-11-27T13:23:15.392Z,100786.23
2017-11-27T13:25:18.743Z,100774.58
2017-11-27T13:27:22.136Z,100775.41
2017-11-27T13:29:25.492Z,100774.58
2017-11-27T13:31:29.062Z,100767.81
2017-11-27T13:33:32.367Z,100765.45
2017-11-27T13:35:35.796Z,100751.00
2017-11-27T13:37:39.201Z,100771.27
2017-11-27T13:39:42.580Z,100751.80
2017-11-27T13:41:46.019Z,100753.16
2017-11-27T13:43:49.421Z,100745.89
2017-11-27T13:45:53.553Z,100737.36
2017-11-27T13:47:56.954Z,100736.84
2017-11-27T13:50:00.513Z,100733.55
2017-11-27T13:52:03.889Z,100734.47
2017-11-27T13:54:08.335Z,100724.50
2017-11-27T13:56:11.947Z,100720.03
2017-11-27T13:58:15.641Z,100719.81
2017-11-27T14:00:19.236Z,100713.05
2017-11-27T14:02:22.551Z,100706.62
2017-11-27T14:04:25.885Z,100712.88
2017-11-27T14:06:29.177Z,100710.59
2017-11-27T14:08:32.483Z,100706.44
2017-11-27T14:10:35.769Z,100697.78
2017-11-27T14:12:39.112Z,100697.78
2017-11-27T14:14:42.518Z,100701.33
2017-11-27T14:16:45.935Z,100691.45
2017-11-27T14:18:50.198Z,100691.27
2017-11-27T14:20:53.638Z,100691.69
2017-11-27T14:22:56.950Z,100694.39
2017-11-27T14:25:00.289Z,100695.73
2017-11-27T14:27:03.633Z,100695.32
2017-11-27T14:29:06.944Z,100697.93
2017-11-27T14:31:10.299Z,100697.80
2017-11-27T14:33:13.681Z,100687.54
2017-11-27T14:35:17.056Z,100692.95
2017-11-27T14:37:20.363Z,100690.23
2017-11-27T14:39:23.699Z,100688.34
2017-11-27T14:41:27.156Z,100691.37
2017-11-27T14:43:30.439Z,100689.51
2017-11-27T14:45:33.776Z,100686.30
2017-11-27T14:47:37.196Z,100683.59
2017-11-27T14:49:40.486Z,100674.84
2017-11-27T14:51:44.090Z,100674.97
2017-11-27T14:53:47.381Z,100670.49
2017-11-27T14:55:50.721Z,100675.39
2017-11-27T14:57:54.045Z,100677.16
2017-11-27T14:59:57.384Z,100673.11
2017-11-27T15:02:00.686Z,100662.59
2017-11-27T15:04:04.186Z,100666.64
2017-11-27T15:06:07.479Z,100662.08
2017-11-27T15:08:10.782Z,100666.55
2017-11-27T15:10:14.096Z,100662.08
2017-11-27T15:12:17.424Z,100662.50
2017-11-27T15:14:20.802Z,100660.20
2017-11-27T15:16:24.120Z,100664.27
2017-11-27T15:18:27.457Z,100657.92
2017-11-27T15:20:30.802Z,100657.41
2017-11-27T15:22:34.154Z,100662.30
2017-11-27T15:24:37.477Z,100644.73
2017-11-27T15:26:40.778Z,100648.79
2017-11-27T15:28:44.782Z,100653.14
2017-11-27T15:30:48.344Z,100646.38
2017-11-27T15:32:51.769Z,100632.45
2017-11-27T15:34:55.126Z,100629.73
2017-11-27T15:36:58.442Z,100636.41
2017-11-27T15:39:01.813Z,100623.73
2017-11-27T15:41:05.269Z,100619.67
2017-11-27T15:43:09.213Z,100622.70
2017-11-27T15:45:12.707Z,100619.58
2017-11-27T15:47:16.036Z,100622.16
2017-11-27T15:49:19.489Z,100612.69
2017-11-27T15:51:22.814Z,100613.95
2017-11-27T15:53:26.254Z,100609.05
2017-11-27T15:55:29.577Z,100589.62
2017-11-27T15:57:32.910Z,100597.31
2017-11-27T15:59:36.306Z,100598.15
2017-11-27T16:01:39.598Z,100599.83
2017-11-27T16:03:42.981Z,100598.56
2017-11-27T16:05:46.331Z,100600.24
2017-11-27T16:07:49.707Z,100600.24
2017-11-27T16:09:53.007Z,100595.26
2017-11-27T16:11:56.332Z,100592.13
2017-11-27T16:13:59.630Z,100582.16
2017-11-27T16:16:02.960Z,100583.51
2017-11-27T16:18:06.372Z,100577.98
2017-11-27T16:20:09.698Z,100579.45
2017-11-27T16:22:13.150Z,100585.66
2017-11-27T16:24:16.482Z,100576.11
2017-11-27T16:26:19.993Z,100568.42
2017-11-27T16:28:23.312Z,100572.98
2017-11-27T16:30:26.654Z,100573.41
2017-11-27T16:32:30.039Z,100555.41
2017-11-27T16:34:33.394Z,100555.22
2017-11-27T16:36:36.809Z,100561.89
2017-11-27T16:38:40.161Z,100559.98
2017-11-27T16:40:43.517Z,100556.26
2017-11-27T16:42:46.871Z,100552.11
2017-11-27T16:44:51.254Z,100557.09
2017-11-27T16:46:54.554Z,100552.95
2017-11-27T16:48:57.916Z,100557.42
2017-11-27T16:51:01.241Z,100555.14
2017-11-27T16:53:04.573Z,100553.78
2017-11-27T16:55:08.091Z,100553.23
2017-11-27T16:57:11.386Z,100551.08
2017-11-27T16:59:14.706Z,100545.67
2017-11-27T17:01:18.056Z,100538.91
2017-11-27T17:03:21.426Z,100528.61
2017-11-27T17:05:24.797Z,100533.19
2017-11-27T17:07:28.154Z,100532.25
2017-11-27T17:09:31.467Z,100533.19
2017-11-27T17:11:34.762Z,100533.70
2017-11-27T17:13:38.113Z,100528.29
2017-11-27T17:15:42.503Z,100528.38
2017-11-27T17:17:45.865Z,100525.48
2017-11-27T17:19:49.289Z,100527.44
2017-11-27T17:21:52.669Z,100536.61
2017-11-27T17:23:56.128Z,100537.22
2017-11-27T17:25:59.446Z,100541.38
2017-11-27T17:28:02.797Z,100527.24
2017-11-27T17:30:06.122Z,100537.73
2017-11-27T17:32:09.454Z,100533.77
2017-11-27T17:34:12.747Z,100537.11
2017-11-27T17:36:16.062Z,100523.27
2017-11-27T17:38:19.403Z,100525.23
2017-11-27T17:40:22.728Z,100532.12
2017-11-27T17:42:26.075Z,100514.73
2017-11-27T17:44:29.406Z,100526.06
2017-11-27T17:46:32.734Z,100519.02
2017-11-27T17:48:36.078Z,100516.92
2017-11-27T17:50:39.496Z,100517.44
2017-11-27T17:52:42.796Z,100518.87
2017-11-27T17:54:46.149Z,100517.23
2017-11-27T17:56:49.625Z,100510.48
2017-11-27T17:58:52.950Z,100511.09
2017-11-27T18:00:56.351Z,100504.00
2017-11-27T18:02:59.687Z,100497.66
2017-11-27T18:05:02.979Z,100490.72
2017-11-27T18:07:06.273Z,100491.13
2017-11-27T18:09:09.660Z,100488.11
2017-11-27T18:11:13.006Z,100490.39
2017-11-27T18:13:16.302Z,100484.56
2017-11-27T18:15:19.741Z,100480.52
2017-11-27T18:17:23.066Z,100480.61
2017-11-27T18:19:26.438Z,100474.78
2017-11-27T18:21:29.775Z,100474.08
2017-11-27T18:23:33.103Z,100475.00
2017-11-27T18:25:36.545Z,100471.88
2017-11-27T18:27:39.938Z,100475.09
2017-11-27T18:29:43.261Z,100476.45
2017-11-27T18:31:46.667Z,100477.09
2017-11-27T18:33:50.047Z,100481.02
2017-11-27T18:35:53.502Z,100484.66
2017-11-27T18:37:56.894Z,100475.84
2017-11-27T18:40:00.200Z,100471.36
2017-11-27T18:42:03.550Z,100472.20
2017-11-27T18:44:06.950Z,100482.17
2017-11-27T18:46:10.362Z,100475.00
2017-11-27T18:48:13.695Z,100468.66
2017-11-27T18:50:17.045Z,100459.30
2017-11-27T18:52:20.395Z,100461.58
2017-11-27T18:54:23.713Z,100466.98
2017-11-27T18:56:27.117Z,100463.45
2017-11-27T18:58:30.550Z,100465.73
2017-11-27T19:00:34.107Z,100460.87
2017-11-27T19:02:37.426Z,100455.98
2017-11-27T19:04:40.891Z,100455.47
2017-11-27T19:06:44.210Z,100447.88
2017-11-27T19:08:47.716Z,100441.11
2017-11-27T19:10:51.105Z,100433.94
2017-11-27T19:12:54.393Z,100440.28
2017-11-27T19:14:57.845Z,100435.30
2017-11-27T19:17:01.281Z,100436.74
2017-11-27T19:19:04.691Z,100440.28
2017-11-27T19:21:08.015Z,100439.95
2017-11-27T19:23:11.412Z,100432.36
2017-11-27T19:25:14.694Z,100440.47
2017-11-27T19:27:17.998Z,100433.71
2017-11-27T19:29:21.367Z,100435.58
2017-11-27T19:31:24.681Z,100431.66
2017-11-27T19:33:28.026Z,100435.70
2017-11-27T19:35:31.397Z,100442.46
2017-11-27T19:37:34.691Z,100442.33
2017-11-27T19:39:38.134Z,100434.77
2017-11-27T19:41:41.462Z,100429.47
2017-11-27T19:43:44.768Z,100424.48
2017-11-27T19:45:48.085Z,100426.25
2017-11-27T19:47:51.446Z,100420.42
2017-11-27T19:49:54.840Z,100419.08
2017-11-27T19:51:58.168Z,100419.08
2017-11-27T19:54:01.545Z,100418.56
2017-11-27T19:56:04.845Z,100414.60
2017-11-27T19:58:08.198Z,100409.72
2017-11-27T20:00:11.687Z,100416.95
2017-11-27T20:02:15.011Z,100407.49
2017-11-27T20:04:18.406Z,100408.01
2017-11-27T20:06:21.741Z,100404.47
2017-11-27T20:08:25.069Z,100406.36
2017-11-27T20:10:28.397Z,100403.24
2017-11-27T20:12:31.836Z,100400.41
2017-11-27T20:14:35.189Z,100399.06
2017-11-27T20:16:38.498Z,100390.77
2017-11-27T20:18:41.914Z,100387.55
2017-11-27T20:20:45.218Z,100391.18
2017-11-27T20:22:48.538Z,100386.20
2017-11-27T20:24:51.865Z,100384.94
2017-11-27T20:26:55.367Z,100389.92
2017-11-27T20:28:58.730Z,100388.58
2017-11-27T20:31:02.154Z,100383.69
2017-11-27T20:33:05.542Z,100384.01
2017-11-27T20:35:08.894Z,100372.87
2017-11-27T20:37:12.542Z,100379.63
2017-11-27T20:39:15.843Z,100373.94
2017-11-27T20:41:19.216Z,100371.23
2017-11-27T20:43:22.664Z,100374.36
2017-11-27T20:45:26.026Z,100378.09
2017-11-27T20:47:29.390Z,100375.80
2017-11-27T20:49:32.726Z,100374.97
2017-11-27T20:51:36.202Z,100367.28
2017-11-27T20:53:39.764Z,100363.32
2017-11-27T20:55:43.233Z,100367.38
2017-11-27T20:57:46.550Z,100367.80
2017-11-27T20:59:49.875Z,100357.08
2017-11-27T21:01:53.394Z,100353.13
2017-11-27T21:03:56.787Z,100359.49
2017-11-27T21:06:00.077Z,100361.36
2017-11-27T21:08:03.470Z,100355.12
2017-11-27T21:10:06.787Z,100354.28
2017-11-27T21:12:10.071Z,100354.70
2017-11-27T21:14:13.423Z,100343.98
2017-11-27T21:16:16.846Z,100335.37
2017-11-27T21:18:20.158Z,100336.72
2017-11-27T21:20:23.510Z,100333.70
2017-11-27T21:22:26.803Z,100331.93
2017-11-27T21:24:30.105Z,100327.07
2017-11-27T21:26:33.583Z,100328.00
2017-11-27T21:28:36.886Z,100408.62
2017-11-27T21:30:40.346Z,100398.34
2017-11-27T21:32:43.707Z,100407.28
2017-11-27T21:34:47.151Z,100408.30
2017-11-27T21:36:50.590Z,100406.02
2017-11-27T21:38:54.067Z,100400.72
2017-11-27T21:40:57.380Z,100394.38
2017-11-27T21:43:00.701Z,100389.07
2017-11-27T21:45:04.117Z,100388.66
2017-11-27T21:47:07.403Z,100387.85
2017-11-27T21:49:10.739Z,100381.48
2017-11-27T21:51:14.107Z,100384.18
2017-11-27T21:53:17.476Z,100385.15
2017-11-27T21:55:20.749Z,100373.09
2017-11-27T21:57:24.099Z,100368.20
2017-11-27T21:59:27.546Z,100375.88
2017-11-27T22:01:30.850Z,100370.48
2017-11-27T22:03:34.332Z,100374.11
2017-11-27T22:05:37.690Z,100369.32
2017-11-27T22:07:40.980Z,100372.86
2017-11-27T22:09:44.436Z,100372.02
2017-11-27T22:11:47.813Z,100375.14
2017-11-27T22:13:51.186Z,100370.38
2017-11-27T22:15:54.510Z,100377.13
2017-11-27T22:17:57.918Z,100377.64
2017-11-27T22:20:01.336Z,100380.77
2017-11-27T22:22:04.759Z,100378.16
2017-11-27T22:24:08.086Z,100379.09
2017-11-27T22:26:11.399Z,100380.45
2017-11-27T22:28:14.733Z,100375.97
2017-11-27T22:30:18.047Z,100378.38
2017-11-27T22:32:21.329Z,100384.17
2017-11-27T22:34:24.827Z,100387.84
2017-11-27T22:36:28.138Z,100382.95
2017-11-27T22:38:31.508Z,100383.88
2017-11-27T22:40:34.826Z,100392.50
2017-11-27T22:42:38.196Z,100394.27
2017-11-27T22:44:41.553Z,100388.45
2017-11-27T22:46:44.985Z,100395.20
2017-11-27T22:48:48.403Z,100388.54
2017-11-27T22:50:51.742Z,100377.83
2017-11-27T22:52:55.322Z,100384.16
2017-11-27T22:54:58.745Z,100381.88
2017-11-27T22:57:02.086Z,100383.23
2017-11-27T22:59:05.435Z,100377.41
2017-11-27T23:01:08.740Z,100377.54
2017-11-27T23:03:12.177Z,100378.05
2017-11-27T23:05:15.598Z,100374.52
2017-11-27T23:07:18.925Z,100375.96
2017-11-27T23:09:22.217Z,100377.31
2017-11-27T23:11:25.612Z,100380.52
2017-11-27T23:13:28.918Z,100367.02
2017-11-27T23:15:32.324Z,100367.15
2017-11-27T23:17:35.650Z,100364.45
2017-11-27T23:19:38.958Z,100363.52
2017-11-27T23:21:42.249Z,100357.27
2017-11-27T23:23:45.602Z,100350.62
2017-11-27T23:25:48.975Z,100342.42
2017-11-27T23:27:52.322Z,100333.48